createdAt,value
2023-01-12T00:00:12.121Z,100295.44
2023-01-12T00:02:16.490Z,100308.22
2023-01-12T00:04:18.502Z,100291.03
2023-01-12T00:06:22.202Z,100267.94
2023-01-12T00:08:24.126Z,100277.19
2023-01-12T00:10:25.945Z,100290.84
2023-01-12T00:12:27.763Z,100271.09
2023-01-12T00:14:29.572Z,100259.31
2023-01-12T00:16:41.286Z,100262.88
2023-01-12T00:18:43.208Z,100232.88
2023-01-12T00:20:49.366Z,100256.63
2023-01-12T00:22:51.158Z,100224.03
2023-01-12T00:24:55.074Z,100257.38
2023-01-12T00:26:58.629Z,100207.69
2023-01-12T00:29:00.370Z,100192.47
2023-01-12T00:31:08.180Z,100200.81
2023-01-12T00:33:10.118Z,100183.88
2023-01-12T00:35:11.959Z,100199.19
2023-01-12T00:37:14.123Z,100192.50
2023-01-12T00:39:17.053Z,100183.06
2023-01-12T00:41:28.248Z,100186.53
2023-01-12T00:43:39.442Z,100188.00
2023-01-12T00:45:41.222Z,100217.06
2023-01-12T00:49:06.738Z,100193.00
2023-01-12T00:51:11.193Z,100184.44
2023-01-12T00:53:25.552Z,100181.16
2023-01-12T00:55:31.202Z,100174.50
2023-01-12T00:58:04.337Z,100189.69
2023-01-12T01:00:10.490Z,100179.41
2023-01-12T01:02:13.506Z,100186.16
2023-01-12T01:06:54.264Z,100179.16
2023-01-12T01:08:56.606Z,100165.47
2023-01-12T01:11:07.638Z,100163.00
2023-01-12T01:13:12.919Z,100145.00
2023-01-12T01:15:21.373Z,100162.09
2023-01-12T01:17:34.798Z,100141.50
2023-01-12T01:19:45.103Z,100169.88
2023-01-12T01:21:53.427Z,100144.09
2023-01-12T01:24:04.847Z,100145.81
2023-01-12T01:26:19.148Z,100141.66
2023-01-12T01:28:25.769Z,100177.53
2023-01-12T01:30:27.928Z,100132.22
2023-01-12T01:32:34.966Z,100153.63
2023-01-12T01:34:40.451Z,100145.06
2023-01-12T01:37:07.163Z,100133.94
2023-01-12T01:39:15.799Z,100122.06
2023-01-12T01:41:25.150Z,100140.94
2023-01-12T01:43:29.177Z,100136.66
2023-01-12T01:45:34.713Z,100129.91
2023-01-12T01:47:54.828Z,100117.13
2023-01-12T01:50:03.944Z,100116.94
2023-01-12T01:52:11.917Z,100129.06
2023-01-12T01:54:28.419Z,100128.94
2023-01-12T01:56:31.858Z,100149.41
2023-01-12T01:59:12.472Z,100112.66
2023-01-12T02:01:17.693Z,100105.03
2023-01-12T02:03:23.825Z,100094.75
2023-01-12T02:05:29.323Z,100116.16
2023-01-12T02:07:52.879Z,100127.34
2023-01-12T02:09:57.402Z,100087.88
2023-01-12T02:12:13.712Z,100091.34
2023-01-12T02:14:30.046Z,100128.22
2023-01-12T02:19:42.497Z,100107.72
2023-01-12T02:22:03.216Z,100098.28
2023-01-12T02:24:24.316Z,100093.19
2023-01-12T02:26:49.395Z,100101.06
2023-01-12T02:29:06.379Z,100090.75
2023-01-12T02:31:28.021Z,100097.78
2023-01-12T02:33:53.988Z,100105.44
2023-01-12T02:36:03.531Z,100142.22
2023-01-12T02:38:47.312Z,100114.94
2023-01-12T02:41:11.463Z,100099.34
2023-01-12T02:43:42.776Z,100096.06
2023-01-12T02:46:19.653Z,100086.53
2023-01-12T02:48:48.568Z,100089.97
2023-01-12T02:51:32.139Z,100083.94
2023-01-12T02:53:46.363Z,100108.00
2023-01-12T02:55:52.813Z,100094.19
2023-01-12T02:58:50.569Z,100090.03
2023-01-12T03:00:31.445Z,100095.09
2023-01-12T03:02:41.188Z,100082.16
2023-01-12T03:05:48.661Z,100080.47
2023-01-12T03:08:04.758Z,100090.81
2023-01-12T03:10:25.386Z,100075.53
2023-01-12T03:12:41.406Z,100083.97
2023-01-12T03:14:50.046Z,100081.38
2023-01-12T03:17:10.447Z,100072.06
2023-01-12T03:19:31.763Z,100079.03
2023-01-12T03:21:45.519Z,100097.09
2023-01-12T03:23:53.379Z,100093.47
2023-01-12T03:25:58.412Z,100093.59
2023-01-12T03:28:05.299Z,100081.63
2023-01-12T03:30:18.118Z,100095.44
2023-01-12T03:32:44.097Z,100088.56
2023-01-12T03:35:16.040Z,100097.09
2023-01-12T03:37:39.772Z,100079.91
2023-01-12T03:39:53.297Z,100095.38
2023-01-12T03:42:06.094Z,100092.78
2023-01-12T03:44:24.768Z,100095.34
2023-01-12T03:46:33.738Z,100104.81
2023-01-12T03:48:48.752Z,100106.53
2023-01-12T03:51:12.133Z,100094.44
2023-01-12T03:53:46.128Z,100092.72
2023-01-12T03:55:51.652Z,100142.66
2023-01-12T03:58:17.501Z,100091.94
2023-01-12T04:00:26.159Z,100093.72
2023-01-12T04:02:30.034Z,100100.44
2023-01-12T04:04:41.409Z,100092.84
2023-01-12T04:06:52.717Z,100111.69
2023-01-12T04:08:56.593Z,100103.16
2023-01-12T04:11:24.798Z,100083.41
2023-01-12T04:13:35.836Z,100118.56
2023-01-12T04:16:14.591Z,100103.03
2023-01-12T04:18:18.773Z,100095.44
2023-01-12T04:20:26.815Z,100109.97
2023-01-12T04:22:42.272Z,100109.88
2023-01-12T04:24:44.742Z,100121.97
2023-01-12T04:26:49.804Z,100123.59
2023-01-12T04:28:51.920Z,100103.97
2023-01-12T04:30:54.389Z,100111.59
2023-01-12T04:33:00.637Z,100099.75
2023-01-12T04:35:09.716Z,100097.97
2023-01-12T04:37:12.017Z,100085.97
2023-01-12T04:39:14.493Z,100104.81
2023-01-12T04:41:16.495Z,100096.34
2023-01-12T04:43:23.132Z,100095.38
2023-01-12T04:45:44.121Z,100087.72
2023-01-12T04:47:46.319Z,100111.75
2023-01-12T04:49:49.003Z,100086.84
2023-01-12T04:51:51.263Z,100094.56
2023-01-12T04:54:05.273Z,100111.66
2023-01-12T04:56:09.022Z,100100.53
2023-01-12T04:58:17.457Z,100112.47
2023-01-12T05:00:23.605Z,100097.13
2023-01-12T05:02:28.894Z,100103.94
2023-01-12T05:04:33.737Z,100087.69
2023-01-12T05:06:49.097Z,100161.50
2023-01-12T05:09:07.327Z,100096.22
2023-01-12T05:11:10.945Z,100086.91
2023-01-12T05:13:16.206Z,100120.34
2023-01-12T05:15:19.702Z,100103.09
2023-01-12T05:17:29.432Z,100114.34
2023-01-12T05:19:31.607Z,100101.44
2023-01-12T05:21:36.843Z,100092.06
2023-01-12T05:23:44.497Z,100093.78
2023-01-12T05:25:55.561Z,100099.00
2023-01-12T05:28:02.899Z,100085.22
2023-01-12T05:30:15.260Z,100099.81
2023-01-12T05:32:17.517Z,100116.97
2023-01-12T05:34:23.735Z,100121.19
2023-01-12T05:36:26.657Z,100102.31
2023-01-12T05:38:34.561Z,100092.06
2023-01-12T05:40:36.741Z,100104.94
2023-01-12T05:42:54.586Z,100093.69
2023-01-12T05:45:02.295Z,100098.06
2023-01-12T05:47:14.170Z,100121.19
2023-01-12T05:49:35.868Z,100106.66
2023-01-12T05:51:41.716Z,100103.28
2023-01-12T05:54:09.702Z,100098.94
2023-01-12T05:56:22.727Z,100097.22
2023-01-12T05:58:56.932Z,100086.06
2023-01-12T06:01:31.184Z,100100.66
2023-01-12T06:03:43.570Z,100098.06
2023-01-12T06:06:02.012Z,100092.91
2023-01-12T06:08:10.002Z,100100.53
2023-01-12T06:10:13.156Z,100088.63
2023-01-12T06:12:33.863Z,100110.97
2023-01-12T06:14:38.803Z,100128.09
2023-01-12T06:16:51.642Z,100097.94
2023-01-12T06:18:54.107Z,100122.78
2023-01-12T06:21:04.218Z,100104.84
2023-01-12T06:23:11.799Z,100116.03
2023-01-12T06:25:14.012Z,100122.94
2023-01-12T06:27:21.205Z,100116.06
2023-01-12T06:29:24.975Z,100111.88
2023-01-12T06:31:45.163Z,100110.97
2023-01-12T06:36:28.608Z,100106.63
2023-01-12T06:38:41.053Z,100115.28
2023-01-12T06:40:49.469Z,100108.38
2023-01-12T06:43:06.215Z,100112.63
2023-01-12T06:45:12.149Z,100125.63
2023-01-12T06:47:15.017Z,100130.72
2023-01-12T06:49:24.732Z,100162.44
2023-01-12T06:51:36.483Z,100115.31
2023-01-12T06:53:40.917Z,100128.22
2023-01-12T06:55:52.948Z,100141.03
2023-01-12T06:58:21.239Z,100126.50
2023-01-12T07:00:31.349Z,100123.91
2023-01-12T07:02:43.357Z,100153.00
2023-01-12T07:04:45.837Z,100150.59
2023-01-12T07:06:49.797Z,100145.31
2023-01-12T07:08:56.127Z,100144.53
2023-01-12T07:11:08.563Z,100153.13
2023-01-12T07:13:23.096Z,100146.31
2023-01-12T07:17:57.893Z,100150.66
2023-01-12T07:20:03.017Z,100169.56
2023-01-12T07:22:09.447Z,100160.16
2023-01-12T07:24:12.282Z,100161.94
2023-01-12T07:26:14.423Z,100157.59
2023-01-12T07:28:22.029Z,100173.13
2023-01-12T07:30:25.655Z,100162.78
2023-01-12T07:32:29.827Z,100163.66
2023-01-12T07:34:32.088Z,100184.31
2023-01-12T07:36:39.003Z,100168.84
2023-01-12T07:38:53.901Z,100163.72
2023-01-12T07:41:00.534Z,100170.47
2023-01-12T07:43:06.263Z,100176.50
2023-01-12T07:45:11.559Z,100163.72
2023-01-12T07:47:24.099Z,100186.06
2023-01-12T07:49:30.775Z,100177.38
2023-01-12T07:51:35.060Z,100188.66
2023-01-12T07:53:49.719Z,100184.34
2023-01-12T07:55:55.007Z,100198.09
2023-01-12T07:58:36.377Z,100187.75
2023-01-12T08:03:25.374Z,100181.72
2023-01-12T08:05:30.303Z,100168.78
2023-01-12T08:07:53.061Z,100182.53
2023-01-12T08:09:58.992Z,100191.16
2023-01-12T08:12:23.523Z,100185.16
2023-01-12T08:14:39.348Z,100180.97
2023-01-12T08:16:48.083Z,100195.47
2023-01-12T08:19:03.023Z,100180.91
2023-01-12T08:21:47.663Z,100202.41
2023-01-12T08:23:55.842Z,100184.25
2023-01-12T08:26:11.094Z,100192.78
2023-01-12T08:28:33.810Z,100183.50
2023-01-12T08:30:49.312Z,100192.94
2023-01-12T08:32:52.209Z,100179.16
2023-01-12T08:34:58.679Z,100182.56
2023-01-12T08:37:25.807Z,100176.56
2023-01-12T08:39:46.432Z,100196.31
2023-01-12T08:41:59.500Z,100186.00
2023-01-12T08:44:09.609Z,100195.47
2023-01-12T08:46:28.096Z,100179.16
2023-01-12T08:48:36.241Z,100192.03
2023-01-12T08:50:38.580Z,100182.63
2023-01-12T08:52:41.103Z,100186.88
2023-01-12T08:54:55.287Z,100184.25
2023-01-12T08:56:57.935Z,100176.56
2023-01-12T08:59:05.964Z,100196.38
2023-01-12T09:01:13.186Z,100174.03
2023-01-12T09:03:25.823Z,100182.63
2023-01-12T09:05:31.700Z,100182.59
2023-01-12T09:07:43.425Z,100188.59
2023-01-12T09:09:46.004Z,100171.47
2023-01-12T09:11:49.938Z,100178.34
2023-01-12T09:13:52.548Z,100180.97
2023-01-12T09:16:16.353Z,100191.25
2023-01-12T09:18:31.187Z,100180.97
2023-01-12T09:20:34.787Z,100178.44
2023-01-12T09:22:49.602Z,100185.31
2023-01-12T09:24:55.147Z,100183.56
2023-01-12T09:27:17.757Z,100189.63
2023-01-12T09:29:21.968Z,100193.00
2023-01-12T09:31:24.471Z,100189.56
2023-01-12T09:35:50.645Z,100187.81
2023-01-12T09:38:08.673Z,100189.50
2023-01-12T09:40:18.320Z,100192.97
2023-01-12T09:42:33.095Z,100206.72
2023-01-12T09:44:58.645Z,100206.69
2023-01-12T09:47:04.601Z,100200.69
2023-01-12T09:49:10.328Z,100201.53
2023-01-12T09:51:30.828Z,100187.78
2023-01-12T09:53:37.211Z,100186.06
2023-01-12T09:55:50.637Z,100178.38
2023-01-12T09:58:12.063Z,100205.91
2023-01-12T10:00:17.499Z,100196.41
2023-01-12T10:02:20.102Z,100188.72
2023-01-12T10:04:22.614Z,100195.56
2023-01-12T10:06:32.159Z,100188.75
2023-01-12T10:08:40.930Z,100189.56
2023-01-12T10:11:05.255Z,100197.31
2023-01-12T10:13:14.453Z,100191.28
2023-01-12T10:15:30.860Z,100193.00
2023-01-12T10:17:52.225Z,100204.22
2023-01-12T10:20:13.736Z,100215.38
2023-01-12T10:22:41.418Z,100186.19
2023-01-12T10:24:46.055Z,100193.97
2023-01-12T10:26:57.579Z,100170.75
2023-01-12T10:29:06.544Z,100169.88
2023-01-12T10:31:18.564Z,100179.38
2023-01-12T10:33:24.710Z,100169.06
2023-01-12T10:35:33.250Z,100202.56
2023-01-12T10:37:45.762Z,100186.22
2023-01-12T10:39:52.195Z,100155.22
2023-01-12T10:42:33.671Z,100179.31
2023-01-12T10:44:36.120Z,100174.09
2023-01-12T10:47:32.612Z,100181.03
2023-01-12T10:49:50.585Z,100183.59
2023-01-12T10:51:59.674Z,100183.56
2023-01-12T10:54:17.742Z,100182.69
2023-01-12T10:56:34.995Z,100176.69
2023-01-12T10:58:45.991Z,100167.28
2023-01-12T11:00:54.509Z,100148.28
2023-01-12T11:02:57.311Z,100161.28
2023-01-12T11:04:59.776Z,100190.47
2023-01-12T11:07:13.799Z,100166.34
2023-01-12T11:09:24.114Z,100146.66
2023-01-12T11:11:31.984Z,100142.31
2023-01-12T11:13:38.013Z,100144.03
2023-01-12T11:16:04.022Z,100135.44
2023-01-12T11:18:27.720Z,100127.75
2023-01-12T11:20:40.039Z,100127.75
2023-01-12T11:22:58.013Z,100109.69
2023-01-12T11:25:07.111Z,100135.47
2023-01-12T11:27:18.776Z,100113.97
2023-01-12T11:29:40.836Z,100118.28
2023-01-12T11:31:48.362Z,100135.47
2023-01-12T11:33:57.074Z,100113.03
2023-01-12T11:36:12.825Z,100101.03
2023-01-12T11:38:25.358Z,100103.63
2023-01-12T11:40:35.193Z,100091.56
2023-01-12T11:43:31.460Z,100095.88
2023-01-12T11:45:42.883Z,100080.41
2023-01-12T11:47:56.183Z,100090.69
2023-01-12T11:50:04.005Z,100096.69
2023-01-12T11:52:15.868Z,100061.44
2023-01-12T11:54:23.757Z,100088.06
2023-01-12T11:56:45.297Z,100074.34
2023-01-12T11:58:53.756Z,100065.75
2023-01-12T12:01:01.739Z,100065.78
2023-01-12T12:03:14.137Z,100051.19
2023-01-12T12:05:22.734Z,100058.03
2023-01-12T12:07:28.612Z,100062.34
2023-01-12T12:09:48.803Z,100048.53
2023-01-12T12:11:54.584Z,100066.56
2023-01-12T12:14:01.826Z,100063.19
2023-01-12T12:16:47.120Z,100049.44
2023-01-12T12:18:51.821Z,100027.94
2023-01-12T12:21:16.206Z,100030.50
2023-01-12T12:23:29.861Z,100020.19
2023-01-12T12:25:41.079Z,100027.09
2023-01-12T12:27:49.508Z,100024.50
2023-01-12T12:29:58.017Z,100022.78
2023-01-12T12:32:04.736Z,100018.47
2023-01-12T12:34:20.112Z,100027.06
2023-01-12T12:36:33.423Z,100022.78
2023-01-12T12:41:25.941Z,100017.63
2023-01-12T12:43:58.314Z,100007.28
2023-01-12T12:46:18.669Z,100008.13
2023-01-12T12:48:41.702Z,100003.84
2023-01-12T12:50:59.704Z,100002.97
2023-01-12T12:53:13.001Z,99997.88
2023-01-12T12:55:37.768Z,99996.97
2023-01-12T13:01:27.820Z,99992.69
2023-01-12T13:03:45.691Z,100030.53
2023-01-12T13:06:33.431Z,99988.38
2023-01-12T13:08:52.779Z,99984.97
2023-01-12T13:11:13.917Z,99983.22
2023-01-12T13:13:27.536Z,100013.34
2023-01-12T13:15:44.036Z,99985.78
2023-01-12T13:17:51.919Z,99991.00
2023-01-12T13:20:04.456Z,99983.25
2023-01-12T13:22:17.167Z,99980.63
2023-01-12T13:24:28.035Z,99989.25
2023-01-12T13:26:39.842Z,99972.03
2023-01-12T13:28:42.284Z,99966.03
2023-01-12T13:34:18.974Z,99961.72
2023-01-12T13:36:34.346Z,99941.94
2023-01-12T13:38:45.334Z,99965.16
2023-01-12T13:40:56.126Z,99936.75
2023-01-12T13:43:38.026Z,99967.72
2023-01-12T13:45:47.282Z,99959.97
2023-01-12T13:48:06.511Z,99945.38
2023-01-12T13:53:31.722Z,99945.38
2023-01-12T13:55:36.523Z,99952.25
2023-01-12T13:57:41.348Z,99933.31
2023-01-12T13:59:54.637Z,99929.88
2023-01-12T14:02:05.641Z,99946.22
2023-01-12T14:04:34.711Z,99936.75
2023-01-12T14:07:01.551Z,99941.09
2023-01-12T14:10:14.193Z,99923.00
2023-01-12T14:15:23.761Z,99926.44
2023-01-12T14:18:36.763Z,99928.16
2023-01-12T14:20:52.314Z,99958.28
2023-01-12T14:23:27.615Z,99942.81
2023-01-12T14:25:30.495Z,99947.97
2023-01-12T14:27:34.554Z,99948.81
2023-01-12T14:30:09.661Z,99956.53
2023-01-12T14:32:15.690Z,99962.59
2023-01-12T14:34:24.372Z,99962.56
2023-01-12T14:36:31.912Z,99958.28
2023-01-12T14:38:37.768Z,99957.44
2023-01-12T14:40:40.444Z,99980.63
2023-01-12T14:42:51.825Z,99961.72
2023-01-12T14:45:02.110Z,99963.44
2023-01-12T14:47:08.866Z,99981.50
2023-01-12T14:49:17.776Z,99972.91
2023-01-12T14:51:26.041Z,99954.81
2023-01-12T14:53:42.274Z,99950.50
2023-01-12T14:55:45.839Z,99965.97
2023-01-12T14:58:08.542Z,99960.81
2023-01-12T15:00:23.285Z,99960.81
2023-01-12T15:02:40.285Z,99939.34
2023-01-12T15:04:49.329Z,99950.53
2023-01-12T15:07:06.891Z,99951.38
2023-01-12T15:09:27.163Z,99972.81
2023-01-12T15:11:47.696Z,99962.56
2023-01-12T15:13:58.488Z,99961.69
2023-01-12T15:16:05.465Z,99950.50
2023-01-12T15:18:12.683Z,99961.66
2023-01-12T15:20:21.360Z,99954.78
2023-01-12T15:22:34.067Z,99960.81
2023-01-12T15:24:43.225Z,99950.47
2023-01-12T15:26:58.729Z,99955.63
2023-01-12T15:29:23.100Z,99969.41
2023-01-12T15:31:33.892Z,99954.78
2023-01-12T15:33:59.451Z,99948.69
2023-01-12T15:36:05.241Z,99950.47
2023-01-12T15:38:11.879Z,99948.78
2023-01-12T15:40:15.801Z,99940.16
2023-01-12T15:42:24.618Z,99947.94
2023-01-12T15:44:31.584Z,99928.13
2023-01-12T15:46:39.978Z,99938.44
2023-01-12T15:48:44.038Z,99933.28
2023-01-12T15:50:48.189Z,99925.53
2023-01-12T15:52:56.943Z,99935.00
2023-01-12T15:55:08.835Z,99932.44
2023-01-12T15:57:21.896Z,99928.94
2023-01-12T15:59:27.682Z,99922.94
2023-01-12T16:01:46.667Z,99930.66
2023-01-12T16:04:09.944Z,99942.75
2023-01-12T16:06:13.163Z,99936.66
2023-01-12T16:08:23.164Z,99939.25
2023-01-12T16:10:31.830Z,99943.53
2023-01-12T16:12:35.102Z,99942.66
2023-01-12T16:14:45.076Z,99958.16
2023-01-12T16:16:47.672Z,99951.28
2023-01-12T16:18:50.344Z,99949.53
2023-01-12T16:21:18.837Z,99970.22
2023-01-12T16:23:30.650Z,99957.28
2023-01-12T16:25:39.232Z,99956.41
2023-01-12T16:27:41.966Z,99968.44
2023-01-12T16:29:46.760Z,99963.28
2023-01-12T16:32:02.031Z,99961.59
2023-01-12T16:34:06.948Z,99961.56
2023-01-12T16:36:14.373Z,99961.56
2023-01-12T16:38:25.009Z,99977.03
2023-01-12T16:40:27.625Z,99962.41
2023-01-12T16:42:32.883Z,99966.72
2023-01-12T16:44:38.706Z,99976.19
2023-01-12T16:46:41.600Z,99980.47
2023-01-12T16:48:44.493Z,99983.91
2023-01-12T16:50:48.240Z,100005.31
2023-01-12T16:53:11.808Z,99995.84
2023-01-12T16:55:15.047Z,99989.03
2023-01-12T16:57:19.482Z,99995.03
2023-01-12T16:59:37.440Z,100009.59
2023-01-12T17:01:40.442Z,100013.06
2023-01-12T17:03:59.917Z,100007.97
2023-01-12T17:06:10.196Z,100004.53
2023-01-12T17:08:12.801Z,100009.72
2023-01-12T17:10:18.898Z,100012.31
2023-01-12T17:15:36.912Z,100016.56
2023-01-12T17:15:56.943Z,100028.59
2023-01-12T17:18:00.441Z,100040.63
2023-01-12T17:20:10.242Z,100051.81
2023-01-12T17:22:16.242Z,100046.72
2023-01-12T17:24:23.502Z,100069.78
2023-01-12T17:26:29.573Z,100063.84
2023-01-12T17:28:38.966Z,100071.66
2023-01-12T17:30:50.401Z,100065.59
2023-01-12T17:32:53.493Z,100075.81
2023-01-12T17:34:56.774Z,100072.41
2023-01-12T17:37:03.339Z,100079.13
2023-01-12T17:39:08.879Z,100089.44
2023-01-12T17:41:16.346Z,100086.03
2023-01-12T17:43:19.045Z,100075.66
2023-01-12T17:45:22.150Z,100083.94
2023-01-12T17:47:25.588Z,100094.34
2023-01-12T17:49:28.092Z,100065.16
2023-01-12T17:51:34.374Z,100080.63
2023-01-12T17:53:55.311Z,100098.63
2023-01-12T17:56:04.615Z,100072.81
2023-01-12T17:58:08.524Z,100097.69
2023-01-12T18:00:31.021Z,100100.03
2023-01-12T18:02:34.549Z,100090.69
2023-01-12T18:04:42.674Z,100094.97
2023-01-12T18:07:04.818Z,100117.19
2023-01-12T18:09:07.440Z,100088.81
2023-01-12T18:11:09.870Z,100099.72
2023-01-12T18:13:13.711Z,100093.91
2023-01-12T18:15:21.629Z,100111.91
2023-01-12T18:17:24.993Z,100103.31
2023-01-12T18:19:27.667Z,100098.94
2023-01-12T18:21:31.078Z,100098.16
2023-01-12T18:23:39.010Z,100106.75
2023-01-12T18:25:41.905Z,100103.06
2023-01-12T18:27:48.256Z,100111.72
2023-01-12T18:29:50.995Z,100087.69
2023-01-12T18:31:56.273Z,100134.06
2023-01-12T18:34:09.364Z,100100.47
2023-01-12T18:36:20.361Z,100109.06
2023-01-12T18:38:26.682Z,100127.72
2023-01-12T18:40:35.494Z,100113.34
2023-01-12T18:42:41.374Z,100117.56
2023-01-12T18:44:49.386Z,100121.97
2023-01-12T18:47:06.198Z,100118.53
2023-01-12T18:49:12.023Z,100121.06
2023-01-12T18:51:21.383Z,100109.19
2023-01-12T18:53:32.067Z,100116.78
2023-01-12T18:55:42.112Z,100126.34
2023-01-12T18:57:52.056Z,100134.97
2023-01-12T19:00:07.700Z,100131.25
2023-01-12T19:02:27.408Z,100116.78
2023-01-12T19:05:32.778Z,100129.63
2023-01-12T19:07:44.642Z,100121.09
2023-01-12T19:09:59.086Z,100129.53
2023-01-12T19:12:12.582Z,100113.22
2023-01-12T19:14:44.251Z,100127.78
2023-01-12T19:16:55.916Z,100112.44
2023-01-12T19:19:08.517Z,100116.47
2023-01-12T19:21:17.600Z,100125.59
2023-01-12T19:24:08.115Z,100117.38
2023-01-12T19:26:41.791Z,100108.75
2023-01-12T19:28:45.021Z,100111.50
2023-01-12T19:30:48.118Z,100104.72
2023-01-12T19:33:34.753Z,100107.25
2023-01-12T19:35:40.558Z,100104.56
2023-01-12T19:37:49.345Z,100119.16
2023-01-12T19:40:03.324Z,100103.78
2023-01-12T19:42:19.611Z,100112.31
2023-01-12T19:44:25.036Z,100129.44
2023-01-12T19:46:28.980Z,100116.47
2023-01-12T19:48:34.115Z,100159.31
2023-01-12T19:50:41.243Z,100153.28
2023-01-12T19:56:13.761Z,100167.69
2023-01-12T19:58:22.506Z,100146.13
2023-01-12T20:00:31.252Z,100155.59
2023-01-12T20:02:56.838Z,100152.28
2023-01-12T20:04:59.502Z,100191.41
2023-01-12T20:07:02.087Z,100185.97
2023-01-12T20:09:07.478Z,100163.69
2023-01-12T20:11:10.309Z,100171.06
2023-01-12T20:13:14.110Z,100166.22
2023-01-12T20:15:18.426Z,100157.78
2023-01-12T20:17:23.431Z,100168.53
2023-01-12T20:19:25.879Z,100155.00
2023-01-12T20:21:28.237Z,100162.00
2023-01-12T20:23:30.499Z,100182.56
2023-01-12T20:25:36.551Z,100167.84
2023-01-12T20:27:40.655Z,100162.09
2023-01-12T20:29:44.251Z,100173.63
2023-01-12T20:31:55.914Z,100183.06
2023-01-12T20:34:00.985Z,100170.41
2023-01-12T20:36:22.538Z,100179.00
2023-01-12T20:38:34.070Z,100170.47
2023-01-12T20:40:38.731Z,100153.25
2023-01-12T20:42:42.950Z,100154.84
2023-01-12T20:44:57.885Z,100136.72
2023-01-12T20:47:00.366Z,100135.00
2023-01-12T20:49:40.740Z,100118.84
2023-01-12T20:51:44.936Z,100120.19
2023-01-12T20:53:47.779Z,100136.50
2023-01-12T20:55:53.772Z,100146.06
2023-01-12T20:58:14.939Z,100133.41
2023-01-12T21:00:19.755Z,100142.84
2023-01-12T21:02:31.054Z,100128.97
2023-01-12T21:04:39.472Z,100126.56
2023-01-12T21:06:46.746Z,100146.97
2023-01-12T21:08:49.232Z,100146.09
2023-01-12T21:10:56.757Z,100145.84
2023-01-12T21:13:40.755Z,100134.81
2023-01-12T21:16:03.962Z,100128.75
2023-01-12T21:22:33.931Z,100138.06
2023-01-12T21:24:41.597Z,100148.53
2023-01-12T21:27:05.891Z,100143.38
2023-01-12T21:29:15.247Z,100145.94
2023-01-12T21:31:35.187Z,100143.09
2023-01-12T21:33:46.754Z,100149.81
2023-01-12T21:36:03.409Z,100133.78
2023-01-12T21:38:06.336Z,100137.31
2023-01-12T21:40:09.977Z,100143.16
2023-01-12T21:42:18.213Z,100153.38
2023-01-12T21:44:20.693Z,100176.50
2023-01-12T21:46:43.679Z,100164.66
2023-01-12T21:48:49.052Z,100154.38
2023-01-12T21:51:01.691Z,100166.44
2023-01-12T21:53:05.719Z,100189.50
2023-01-12T21:55:14.997Z,100196.31
2023-01-12T21:57:17.518Z,100184.53
2023-01-12T21:59:53.456Z,100165.69
2023-01-12T22:01:57.938Z,100175.22
2023-01-12T22:04:00.646Z,100167.25
2023-01-12T22:06:07.448Z,100166.56
2023-01-12T22:08:11.128Z,100170.78
2023-01-12T22:10:18.639Z,100146.13
2023-01-12T22:12:21.817Z,100145.94
2023-01-12T22:14:24.373Z,100152.22
2023-01-12T22:16:26.718Z,100150.97
2023-01-12T22:18:32.096Z,100150.63
2023-01-12T22:20:38.289Z,100136.06
2023-01-12T22:22:45.621Z,100142.09
2023-01-12T22:24:48.850Z,100145.91
2023-01-12T22:26:51.009Z,100131.34
2023-01-12T22:28:58.384Z,100120.19
2023-01-12T22:31:22.693Z,100120.97
2023-01-12T22:34:34.277Z,100126.78
2023-01-12T22:36:51.793Z,100119.19
2023-01-12T22:38:54.648Z,100115.91
2023-01-12T22:41:02.901Z,100126.75
2023-01-12T22:43:14.370Z,100114.59
2023-01-12T22:45:23.215Z,100112.84
2023-01-12T22:49:55.983Z,100121.44
2023-01-12T22:52:03.765Z,100096.63
2023-01-12T22:54:09.405Z,100099.97
2023-01-12T22:56:12.639Z,100095.69
2023-01-12T22:58:17.959Z,100098.47
2023-01-12T23:00:32.211Z,100111.09
2023-01-12T23:02:37.820Z,100082.09
2023-01-12T23:04:40.200Z,100082.09
2023-01-12T23:06:42.543Z,100080.13
2023-01-12T23:08:47.731Z,100075.03
2023-01-12T23:10:55.817Z,100077.72
2023-01-12T23:13:09.586Z,100065.94
2023-01-12T23:15:12.175Z,100082.84
2023-01-12T23:17:23.327Z,100086.94
2023-01-12T23:19:26.030Z,100087.00
2023-01-12T23:21:43.990Z,100079.81
2023-01-12T23:23:55.337Z,100082.69
2023-01-12T23:26:16.022Z,100070.69
2023-01-12T23:28:30.031Z,100088.75
2023-01-12T23:33:10.728Z,100087.44
2023-01-12T23:35:15.840Z,100085.44
2023-01-12T23:37:21.368Z,100094.38
2023-01-12T23:39:48.518Z,100066.00
2023-01-12T23:41:58.840Z,100084.16
2023-01-12T23:44:12.976Z,100073.97
2023-01-12T23:46:22.895Z,100058.47
2023-01-12T23:48:58.338Z,100044.22
2023-01-12T23:51:04.543Z,100056.06
2023-01-12T23:53:16.549Z,100042.34
2023-01-12T23:55:18.867Z,100074.38
2023-01-12T23:57:32.216Z,100045.53
2023-01-12T23:59:44.135Z,100068.38
